sensor_id;sensor_type;location;lat;lon;timestamp;temperature;humidity
59651;DHT22;45954;49.768;8.636;2023-09-12T00:00:03;21.90;98.90
59651;DHT22;45954;49.768;8.636;2023-09-12T00:02:31;21.90;99.00
59651;DHT22;45954;49.768;8.636;2023-09-12T00:04:56;21.90;99.00
59651;DHT22;45954;49.768;8.636;2023-09-12T00:07:22;21.80;99.20
59651;DHT22;45954;49.768;8.636;2023-09-12T00:09:48;21.80;99.40
59651;DHT22;45954;49.768;8.636;2023-09-12T00:12:15;21.70;99.50
59651;DHT22;45954;49.768;8.636;2023-09-12T00:14:41;21.60;99.70
59651;DHT22;45954;49.768;8.636;2023-09-12T00:17:07;21.50;99.90
59651;DHT22;45954;49.768;8.636;2023-09-12T00:19:34;21.60;99.90
59651;DHT22;45954;49.768;8.636;2023-09-12T00:22:00;21.50;99.90
59651;DHT22;45954;49.768;8.636;2023-09-12T00:24:26;21.40;99.90
59651;DHT22;45954;49.768;8.636;2023-09-12T00:26:52;21.30;99.90
59651;DHT22;45954;49.768;8.636;2023-09-12T00:29:18;21.30;99.90
59651;DHT22;45954;49.768;8.636;2023-09-12T00:31:43;21.40;99.90
59651;DHT22;45954;49.768;8.636;2023-09-12T00:34:09;21.40;99.90
59651;DHT22;45954;49.768;8.636;2023-09-12T00:36:35;21.50;99.90
59651;DHT22;45954;49.768;8.636;2023-09-12T00:39:03;21.50;99.90
59651;DHT22;45954;49.768;8.636;2023-09-12T00:41:29;21.40;99.90
59651;DHT22;45954;49.768;8.636;2023-09-12T00:43:55;21.30;99.90
59651;DHT22;45954;49.768;8.636;2023-09-12T00:46:22;21.20;99.90
59651;DHT22;45954;49.768;8.636;2023-09-12T00:48:50;21.20;99.90
59651;DHT22;45954;49.768;8.636;2023-09-12T00:51:20;21.20;99.90
59651;DHT22;45954;49.768;8.636;2023-09-12T00:53:47;21.20;99.90
59651;DHT22;45954;49.768;8.636;2023-09-12T00:56:14;21.10;99.90
59651;DHT22;45954;49.768;8.636;2023-09-12T00:58:40;21.10;99.90
59651;DHT22;45954;49.768;8.636;2023-09-12T01:01:07;21.00;99.90
59651;DHT22;45954;49.768;8.636;2023-09-12T01:03:35;20.90;99.90
59651;DHT22;45954;49.768;8.636;2023-09-12T01:06:02;21.00;99.90
59651;DHT22;45954;49.768;8.636;2023-09-12T01:08:28;21.00;99.90
59651;DHT22;45954;49.768;8.636;2023-09-12T01:10:55;21.00;99.90
59651;DHT22;45954;49.768;8.636;2023-09-12T01:13:23;21.00;99.90
59651;DHT22;45954;49.768;8.636;2023-09-12T01:15:49;21.00;99.90
59651;DHT22;45954;49.768;8.636;2023-09-12T01:18:15;21.10;99.90
59651;DHT22;45954;49.768;8.636;2023-09-12T01:29:30;21.00;99.90
59651;DHT22;45954;49.768;8.636;2023-09-12T01:31:58;20.80;99.90
59651;DHT22;45954;49.768;8.636;2023-09-12T01:34:25;20.90;99.90
59651;DHT22;45954;49.768;8.636;2023-09-12T01:36:51;20.90;99.90
59651;DHT22;45954;49.768;8.636;2023-09-12T01:39:17;20.80;99.90
59651;DHT22;45954;49.768;8.636;2023-09-12T01:41:46;20.80;99.90
59651;DHT22;45954;49.768;8.636;2023-09-12T01:44:14;20.80;99.90
59651;DHT22;45954;49.768;8.636;2023-09-12T01:46:43;20.80;99.90
59651;DHT22;45954;49.768;8.636;2023-09-12T01:49:10;20.90;99.90
59651;DHT22;45954;49.768;8.636;2023-09-12T01:51:37;20.90;99.90
59651;DHT22;45954;49.768;8.636;2023-09-12T01:54:04;20.90;99.90
59651;DHT22;45954;49.768;8.636;2023-09-12T01:56:30;21.00;99.90
59651;DHT22;45954;49.768;8.636;2023-09-12T01:58:57;21.10;99.90
59651;DHT22;45954;49.768;8.636;2023-09-12T02:01:24;21.10;99.90
59651;DHT22;45954;49.768;8.636;2023-09-12T02:03:52;21.10;99.90
59651;DHT22;45954;49.768;8.636;2023-09-12T02:06:18;21.00;99.90
59651;DHT22;45954;49.768;8.636;2023-09-12T02:08:44;21.00;99.90
59651;DHT22;45954;49.768;8.636;2023-09-12T02:11:09;21.10;99.90
59651;DHT22;45954;49.768;8.636;2023-09-12T02:13:35;21.00;99.90
59651;DHT22;45954;49.768;8.636;2023-09-12T02:16:01;21.10;99.90
59651;DHT22;45954;49.768;8.636;2023-09-12T02:18:29;21.10;99.90
59651;DHT22;45954;49.768;8.636;2023-09-12T02:20:54;21.00;99.90
59651;DHT22;45954;49.768;8.636;2023-09-12T02:23:21;21.00;99.90
59651;DHT22;45954;49.768;8.636;2023-09-12T02:25:47;21.00;99.90
59651;DHT22;45954;49.768;8.636;2023-09-12T02:28:13;21.10;99.90
59651;DHT22;45954;49.768;8.636;2023-09-12T02:30:39;21.10;99.90
59651;DHT22;45954;49.768;8.636;2023-09-12T02:33:07;21.10;99.90
59651;DHT22;45954;49.768;8.636;2023-09-12T02:35:33;21.10;99.90
59651;DHT22;45954;49.768;8.636;2023-09-12T02:37:59;20.90;99.90
59651;DHT22;45954;49.768;8.636;2023-09-12T02:40:25;20.80;99.90
59651;DHT22;45954;49.768;8.636;2023-09-12T02:42:51;20.90;99.90
59651;DHT22;45954;49.768;8.636;2023-09-12T02:45:20;20.90;99.90
59651;DHT22;45954;49.768;8.636;2023-09-12T02:47:46;20.80;99.90
59651;DHT22;45954;49.768;8.636;2023-09-12T02:50:12;20.70;99.90
59651;DHT22;45954;49.768;8.636;2023-09-12T02:52:37;20.80;99.90
59651;DHT22;45954;49.768;8.636;2023-09-12T02:55:04;20.80;99.90
59651;DHT22;45954;49.768;8.636;2023-09-12T02:57:30;20.80;99.90
59651;DHT22;45954;49.768;8.636;2023-09-12T02:59:56;20.70;99.90
59651;DHT22;45954;49.768;8.636;2023-09-12T03:02:21;20.50;99.90
59651;DHT22;45954;49.768;8.636;2023-09-12T03:04:47;20.30;99.90
59651;DHT22;45954;49.768;8.636;2023-09-12T03:07:13;19.70;99.90
59651;DHT22;45954;49.768;8.636;2023-09-12T03:09:39;19.80;99.90
59651;DHT22;45954;49.768;8.636;2023-09-12T03:12:05;20.10;99.90
59651;DHT22;45954;49.768;8.636;2023-09-12T03:14:31;20.30;99.90
59651;DHT22;45954;49.768;8.636;2023-09-12T03:16:57;20.30;99.90
59651;DHT22;45954;49.768;8.636;2023-09-12T03:19:23;20.00;99.90
59651;DHT22;45954;49.768;8.636;2023-09-12T03:21:48;20.30;99.90
59651;DHT22;45954;49.768;8.636;2023-09-12T03:24:14;20.30;99.90
59651;DHT22;45954;49.768;8.636;2023-09-12T03:26:43;20.40;99.90
59651;DHT22;45954;49.768;8.636;2023-09-12T03:29:09;20.20;99.90
59651;DHT22;45954;49.768;8.636;2023-09-12T03:31:36;20.10;99.90
59651;DHT22;45954;49.768;8.636;2023-09-12T03:34:02;20.10;99.90
59651;DHT22;45954;49.768;8.636;2023-09-12T03:36:27;20.10;99.90
59651;DHT22;45954;49.768;8.636;2023-09-12T03:38:53;20.20;99.90
59651;DHT22;45954;49.768;8.636;2023-09-12T03:41:20;20.20;99.90
59651;DHT22;45954;49.768;8.636;2023-09-12T03:43:53;20.10;99.90
59651;DHT22;45954;49.768;8.636;2023-09-12T03:46:20;20.00;99.90
59651;DHT22;45954;49.768;8.636;2023-09-12T03:48:46;20.10;99.90
59651;DHT22;45954;49.768;8.636;2023-09-12T03:51:13;20.20;99.90
59651;DHT22;45954;49.768;8.636;2023-09-12T03:53:39;20.20;99.90
59651;DHT22;45954;49.768;8.636;2023-09-12T03:56:04;20.30;99.90
59651;DHT22;45954;49.768;8.636;2023-09-12T03:58:30;20.20;99.90
59651;DHT22;45954;49.768;8.636;2023-09-12T04:00:56;20.10;99.90
59651;DHT22;45954;49.768;8.636;2023-09-12T04:03:22;19.90;99.90
59651;DHT22;45954;49.768;8.636;2023-09-12T04:05:49;20.10;99.90
59651;DHT22;45954;49.768;8.636;2023-09-12T04:08:16;20.40;99.90
59651;DHT22;45954;49.768;8.636;2023-09-12T04:10:42;20.60;99.90
59651;DHT22;45954;49.768;8.636;2023-09-12T04:13:09;20.50;99.90
59651;DHT22;45954;49.768;8.636;2023-09-12T04:15:34;20.40;99.90
59651;DHT22;45954;49.768;8.636;2023-09-12T04:18:00;19.80;99.90
59651;DHT22;45954;49.768;8.636;2023-09-12T04:20:26;19.80;99.90
59651;DHT22;45954;49.768;8.636;2023-09-12T04:22:52;19.70;99.90
59651;DHT22;45954;49.768;8.636;2023-09-12T04:25:18;19.80;99.90
59651;DHT22;45954;49.768;8.636;2023-09-12T04:27:45;20.00;99.90
59651;DHT22;45954;49.768;8.636;2023-09-12T04:30:12;20.30;99.90
59651;DHT22;45954;49.768;8.636;2023-09-12T04:32:38;20.40;99.90
59651;DHT22;45954;49.768;8.636;2023-09-12T04:35:04;20.20;99.90
59651;DHT22;45954;49.768;8.636;2023-09-12T04:37:30;20.20;99.90
59651;DHT22;45954;49.768;8.636;2023-09-12T04:39:56;20.20;99.90
59651;DHT22;45954;49.768;8.636;2023-09-12T04:42:22;20.10;99.90
59651;DHT22;45954;49.768;8.636;2023-09-12T04:44:48;20.00;99.90
59651;DHT22;45954;49.768;8.636;2023-09-12T04:47:14;20.10;99.90
59651;DHT22;45954;49.768;8.636;2023-09-12T04:49:41;20.20;99.90
59651;DHT22;45954;49.768;8.636;2023-09-12T04:52:08;20.10;99.90
59651;DHT22;45954;49.768;8.636;2023-09-12T04:54:37;20.00;99.90
59651;DHT22;45954;49.768;8.636;2023-09-12T04:57:03;20.20;99.90
59651;DHT22;45954;49.768;8.636;2023-09-12T04:59:29;20.10;99.90
59651;DHT22;45954;49.768;8.636;2023-09-12T05:01:55;20.10;99.90
59651;DHT22;45954;49.768;8.636;2023-09-12T05:04:21;20.20;99.90
59651;DHT22;45954;49.768;8.636;2023-09-12T05:06:46;20.00;99.90
59651;DHT22;45954;49.768;8.636;2023-09-12T05:09:13;20.10;99.90
59651;DHT22;45954;49.768;8.636;2023-09-12T05:11:39;20.30;99.90
59651;DHT22;45954;49.768;8.636;2023-09-12T05:14:04;20.40;99.90
59651;DHT22;45954;49.768;8.636;2023-09-12T05:16:31;20.50;99.90
59651;DHT22;45954;49.768;8.636;2023-09-12T05:18:57;20.60;99.90
59651;DHT22;45954;49.768;8.636;2023-09-12T05:21:26;20.60;99.90
59651;DHT22;45954;49.768;8.636;2023-09-12T05:23:51;20.70;99.90
59651;DHT22;45954;49.768;8.636;2023-09-12T05:26:17;20.70;99.90
59651;DHT22;45954;49.768;8.636;2023-09-12T05:28:43;20.80;99.90
59651;DHT22;45954;49.768;8.636;2023-09-12T05:31:09;20.60;99.90
59651;DHT22;45954;49.768;8.636;2023-09-12T05:33:35;20.50;99.90
59651;DHT22;45954;49.768;8.636;2023-09-12T05:36:01;20.40;99.90
59651;DHT22;45954;49.768;8.636;2023-09-12T05:38:28;20.40;99.90
59651;DHT22;45954;49.768;8.636;2023-09-12T05:40:53;20.40;99.90
59651;DHT22;45954;49.768;8.636;2023-09-12T05:43:19;20.20;99.90
59651;DHT22;45954;49.768;8.636;2023-09-12T05:45:45;20.10;99.90
59651;DHT22;45954;49.768;8.636;2023-09-12T05:48:11;20.20;99.90
59651;DHT22;45954;49.768;8.636;2023-09-12T05:50:37;20.20;99.90
59651;DHT22;45954;49.768;8.636;2023-09-12T05:53:03;20.10;99.90
59651;DHT22;45954;49.768;8.636;2023-09-12T05:55:29;20.20;99.90
59651;DHT22;45954;49.768;8.636;2023-09-12T05:57:55;20.40;99.90
59651;DHT22;45954;49.768;8.636;2023-09-12T06:00:21;20.60;99.90
59651;DHT22;45954;49.768;8.636;2023-09-12T06:02:47;20.70;99.90
59651;DHT22;45954;49.768;8.636;2023-09-12T06:05:14;20.60;99.90
59651;DHT22;45954;49.768;8.636;2023-09-12T06:07:41;20.30;99.90
59651;DHT22;45954;49.768;8.636;2023-09-12T06:10:08;20.20;99.90
59651;DHT22;45954;49.768;8.636;2023-09-12T06:12:34;20.30;99.90
59651;DHT22;45954;49.768;8.636;2023-09-12T06:15:04;20.60;99.90
59651;DHT22;45954;49.768;8.636;2023-09-12T06:17:31;20.60;99.90
59651;DHT22;45954;49.768;8.636;2023-09-12T06:19:57;20.30;99.90
59651;DHT22;45954;49.768;8.636;2023-09-12T06:22:23;20.10;99.90
59651;DHT22;45954;49.768;8.636;2023-09-12T06:24:50;20.00;99.90
59651;DHT22;45954;49.768;8.636;2023-09-12T06:27:16;19.90;99.90
59651;DHT22;45954;49.768;8.636;2023-09-12T06:29:45;20.00;99.90
59651;DHT22;45954;49.768;8.636;2023-09-12T06:32:14;19.90;99.90
59651;DHT22;45954;49.768;8.636;2023-09-12T06:34:41;20.20;99.90
59651;DHT22;45954;49.768;8.636;2023-09-12T06:37:08;20.40;99.90
59651;DHT22;45954;49.768;8.636;2023-09-12T06:39:34;20.50;99.90
59651;DHT22;45954;49.768;8.636;2023-09-12T06:42:00;20.50;99.90
59651;DHT22;45954;49.768;8.636;2023-09-12T06:44:26;20.60;99.90
59651;DHT22;45954;49.768;8.636;2023-09-12T06:46:51;20.70;99.90
59651;DHT22;45954;49.768;8.636;2023-09-12T06:49:17;20.80;99.90
59651;DHT22;45954;49.768;8.636;2023-09-12T06:51:43;20.60;99.90
59651;DHT22;45954;49.768;8.636;2023-09-12T06:54:09;20.60;99.90
59651;DHT22;45954;49.768;8.636;2023-09-12T06:56:35;20.50;99.90
59651;DHT22;45954;49.768;8.636;2023-09-12T06:59:06;20.50;99.90
59651;DHT22;45954;49.768;8.636;2023-09-12T07:01:32;20.80;99.90
59651;DHT22;45954;49.768;8.636;2023-09-12T07:03:58;21.10;99.90
59651;DHT22;45954;49.768;8.636;2023-09-12T07:06:24;21.20;99.90
59651;DHT22;45954;49.768;8.636;2023-09-12T07:08:50;21.20;99.90
59651;DHT22;45954;49.768;8.636;2023-09-12T07:11:17;20.90;99.90
59651;DHT22;45954;49.768;8.636;2023-09-12T07:13:45;21.00;99.90
59651;DHT22;45954;49.768;8.636;2023-09-12T07:16:11;21.20;99.90
59651;DHT22;45954;49.768;8.636;2023-09-12T07:18:37;21.40;99.90
59651;DHT22;45954;49.768;8.636;2023-09-12T07:21:05;21.70;99.90
59651;DHT22;45954;49.768;8.636;2023-09-12T07:23:32;21.80;99.90
59651;DHT22;45954;49.768;8.636;2023-09-12T07:25:58;21.90;99.90
59651;DHT22;45954;49.768;8.636;2023-09-12T07:28:29;22.10;99.90
59651;DHT22;45954;49.768;8.636;2023-09-12T07:30:56;22.30;99.90
59651;DHT22;45954;49.768;8.636;2023-09-12T07:33:23;22.50;99.90
59651;DHT22;45954;49.768;8.636;2023-09-12T07:35:52;22.60;99.90
59651;DHT22;45954;49.768;8.636;2023-09-12T07:38:18;22.60;99.90
59651;DHT22;45954;49.768;8.636;2023-09-12T07:40:45;22.60;99.90
59651;DHT22;45954;49.768;8.636;2023-09-12T07:43:11;22.50;99.90
59651;DHT22;45954;49.768;8.636;2023-09-12T07:45:37;22.30;99.90
59651;DHT22;45954;49.768;8.636;2023-09-12T07:48:08;22.30;99.90
59651;DHT22;45954;49.768;8.636;2023-09-12T07:50:37;22.30;99.90
59651;DHT22;45954;49.768;8.636;2023-09-12T07:53:06;22.30;99.90
59651;DHT22;45954;49.768;8.636;2023-09-12T07:55:37;22.50;99.90
59651;DHT22;45954;49.768;8.636;2023-09-12T07:58:12;22.90;99.90
59651;DHT22;45954;49.768;8.636;2023-09-12T08:00:38;23.00;99.90
59651;DHT22;45954;49.768;8.636;2023-09-12T08:03:04;23.00;99.90
59651;DHT22;45954;49.768;8.636;2023-09-12T08:05:30;23.20;99.90
59651;DHT22;45954;49.768;8.636;2023-09-12T08:07:56;23.40;99.90
59651;DHT22;45954;49.768;8.636;2023-09-12T08:10:22;23.60;99.90
59651;DHT22;45954;49.768;8.636;2023-09-12T08:12:48;23.60;99.90
59651;DHT22;45954;49.768;8.636;2023-09-12T08:15:14;23.90;99.90
59651;DHT22;45954;49.768;8.636;2023-09-12T08:17:40;23.90;99.90
59651;DHT22;45954;49.768;8.636;2023-09-12T08:20:08;23.90;99.90
59651;DHT22;45954;49.768;8.636;2023-09-12T08:22:36;24.10;99.90
59651;DHT22;45954;49.768;8.636;2023-09-12T08:25:03;24.00;99.90
59651;DHT22;45954;49.768;8.636;2023-09-12T08:27:29;24.30;99.90
59651;DHT22;45954;49.768;8.636;2023-09-12T08:29:56;24.40;99.90
59651;DHT22;45954;49.768;8.636;2023-09-12T08:32:22;24.60;99.90
59651;DHT22;45954;49.768;8.636;2023-09-12T08:34:47;24.60;99.70
59651;DHT22;45954;49.768;8.636;2023-09-12T08:37:13;24.70;99.60
59651;DHT22;45954;49.768;8.636;2023-09-12T08:39:43;24.60;99.90
59651;DHT22;45954;49.768;8.636;2023-09-12T08:42:17;24.80;99.90
59651;DHT22;45954;49.768;8.636;2023-09-12T08:44:43;24.90;99.40
59651;DHT22;45954;49.768;8.636;2023-09-12T08:47:11;24.90;99.50
59651;DHT22;45954;49.768;8.636;2023-09-12T08:49:38;24.90;99.40
59651;DHT22;45954;49.768;8.636;2023-09-12T08:52:05;25.00;98.70
59651;DHT22;45954;49.768;8.636;2023-09-12T08:54:37;25.30;98.80
59651;DHT22;45954;49.768;8.636;2023-09-12T08:57:05;25.50;98.50
59651;DHT22;45954;49.768;8.636;2023-09-12T08:59:31;25.50;98.60
59651;DHT22;45954;49.768;8.636;2023-09-12T09:02:00;25.70;98.20
59651;DHT22;45954;49.768;8.636;2023-09-12T09:04:33;25.80;98.10
59651;DHT22;45954;49.768;8.636;2023-09-12T09:07:04;25.90;98.00
59651;DHT22;45954;49.768;8.636;2023-09-12T09:09:31;25.60;98.30
59651;DHT22;45954;49.768;8.636;2023-09-12T09:11:58;25.70;98.20
59651;DHT22;45954;49.768;8.636;2023-09-12T09:14:23;25.90;97.60
59651;DHT22;45954;49.768;8.636;2023-09-12T09:16:50;25.90;97.40
59651;DHT22;45954;49.768;8.636;2023-09-12T09:19:16;26.00;97.90
59651;DHT22;45954;49.768;8.636;2023-09-12T09:21:44;26.30;97.40
59651;DHT22;45954;49.768;8.636;2023-09-12T09:24:12;26.10;97.60
59651;DHT22;45954;49.768;8.636;2023-09-12T09:29:19;26.40;97.20
59651;DHT22;45954;49.768;8.636;2023-09-12T09:31:48;26.80;96.90
59651;DHT22;45954;49.768;8.636;2023-09-12T09:34:17;26.80;97.30
59651;DHT22;45954;49.768;8.636;2023-09-12T09:36:53;26.90;96.50
59651;DHT22;45954;49.768;8.636;2023-09-12T09:39:26;26.80;96.80
59651;DHT22;45954;49.768;8.636;2023-09-12T09:41:57;26.60;97.00
59651;DHT22;45954;49.768;8.636;2023-09-12T09:44:25;26.80;96.80
59651;DHT22;45954;49.768;8.636;2023-09-12T09:46:59;26.90;96.70
59651;DHT22;45954;49.768;8.636;2023-09-12T09:49:31;27.00;97.30
59651;DHT22;45954;49.768;8.636;2023-09-12T09:51:59;27.00;96.70
59651;DHT22;45954;49.768;8.636;2023-09-12T09:54:29;26.90;96.90
59651;DHT22;45954;49.768;8.636;2023-09-12T09:56:56;26.90;96.90
59651;DHT22;45954;49.768;8.636;2023-09-12T09:59:27;27.00;96.80
59651;DHT22;45954;49.768;8.636;2023-09-12T10:01:59;26.80;96.40
59651;DHT22;45954;49.768;8.636;2023-09-12T10:04:28;26.90;96.80
59651;DHT22;45954;49.768;8.636;2023-09-12T10:06:56;27.10;96.70
59651;DHT22;45954;49.768;8.636;2023-09-12T10:09:26;27.20;96.30
59651;DHT22;45954;49.768;8.636;2023-09-12T10:11:55;27.30;96.60
59651;DHT22;45954;49.768;8.636;2023-09-12T10:14:24;27.50;97.10
59651;DHT22;45954;49.768;8.636;2023-09-12T10:17:00;27.70;96.70
59651;DHT22;45954;49.768;8.636;2023-09-12T10:19:32;27.70;96.80
59651;DHT22;45954;49.768;8.636;2023-09-12T10:22:17;27.60;96.80
59651;DHT22;45954;49.768;8.636;2023-09-12T10:24:49;27.70;96.50
59651;DHT22;45954;49.768;8.636;2023-09-12T10:27:18;27.70;96.70
59651;DHT22;45954;49.768;8.636;2023-09-12T10:29:45;27.60;96.40
59651;DHT22;45954;49.768;8.636;2023-09-12T10:32:14;27.60;96.40
59651;DHT22;45954;49.768;8.636;2023-09-12T10:34:41;27.60;97.40
59651;DHT22;45954;49.768;8.636;2023-09-12T10:37:15;27.40;96.50
59651;DHT22;45954;49.768;8.636;2023-09-12T10:39:43;27.50;96.80
59651;DHT22;45954;49.768;8.636;2023-09-12T10:42:10;27.80;96.80
59651;DHT22;45954;49.768;8.636;2023-09-12T10:44:38;28.40;96.00
59651;DHT22;45954;49.768;8.636;2023-09-12T10:47:05;28.80;95.40
59651;DHT22;45954;49.768;8.636;2023-09-12T10:49:32;28.80;95.20
59651;DHT22;45954;49.768;8.636;2023-09-12T10:51:58;28.80;95.00
59651;DHT22;45954;49.768;8.636;2023-09-12T10:54:40;29.10;95.30
59651;DHT22;45954;49.768;8.636;2023-09-12T10:57:07;29.40;94.80
59651;DHT22;45954;49.768;8.636;2023-09-12T10:59:36;29.20;94.30
59651;DHT22;45954;49.768;8.636;2023-09-12T11:02:38;29.60;94.80
59651;DHT22;45954;49.768;8.636;2023-09-12T11:07:57;30.70;93.60
59651;DHT22;45954;49.768;8.636;2023-09-12T11:10:24;30.90;93.80
59651;DHT22;45954;49.768;8.636;2023-09-12T11:12:58;30.80;93.30
59651;DHT22;45954;49.768;8.636;2023-09-12T11:15:27;30.80;92.80
59651;DHT22;45954;49.768;8.636;2023-09-12T11:18:04;31.00;92.50
59651;DHT22;45954;49.768;8.636;2023-09-12T11:20:58;30.90;92.60
59651;DHT22;45954;49.768;8.636;2023-09-12T11:23:25;30.60;92.30
59651;DHT22;45954;49.768;8.636;2023-09-12T11:26:12;30.90;92.30
59651;DHT22;45954;49.768;8.636;2023-09-12T11:28:39;30.40;92.00
59651;DHT22;45954;49.768;8.636;2023-09-12T11:31:08;30.40;92.20
59651;DHT22;45954;49.768;8.636;2023-09-12T11:33:34;30.60;92.40
59651;DHT22;45954;49.768;8.636;2023-09-12T11:36:02;30.70;92.50
59651;DHT22;45954;49.768;8.636;2023-09-12T11:38:30;30.60;92.20
59651;DHT22;45954;49.768;8.636;2023-09-12T11:40:59;30.50;92.20
59651;DHT22;45954;49.768;8.636;2023-09-12T11:43:27;30.70;92.20
59651;DHT22;45954;49.768;8.636;2023-09-12T11:45:55;31.30;91.80
59651;DHT22;45954;49.768;8.636;2023-09-12T11:48:22;31.10;92.20
59651;DHT22;45954;49.768;8.636;2023-09-12T11:50:55;31.30;91.30
59651;DHT22;45954;49.768;8.636;2023-09-12T11:53:24;31.40;91.70
59651;DHT22;45954;49.768;8.636;2023-09-12T11:55:56;31.90;91.50
59651;DHT22;45954;49.768;8.636;2023-09-12T11:58:24;31.70;91.40
59651;DHT22;45954;49.768;8.636;2023-09-12T12:00:56;31.00;91.00
59651;DHT22;45954;49.768;8.636;2023-09-12T12:03:25;31.10;91.60
59651;DHT22;45954;49.768;8.636;2023-09-12T12:05:54;31.10;91.00
59651;DHT22;45954;49.768;8.636;2023-09-12T12:08:20;31.10;91.30
59651;DHT22;45954;49.768;8.636;2023-09-12T12:10:51;31.40;91.40
59651;DHT22;45954;49.768;8.636;2023-09-12T12:13:18;31.50;90.90
59651;DHT22;45954;49.768;8.636;2023-09-12T12:15:45;30.80;91.10
59651;DHT22;45954;49.768;8.636;2023-09-12T12:18:10;31.10;91.70
59651;DHT22;45954;49.768;8.636;2023-09-12T12:20:37;31.90;91.30
59651;DHT22;45954;49.768;8.636;2023-09-12T12:23:03;32.60;91.10
59651;DHT22;45954;49.768;8.636;2023-09-12T12:25:34;32.70;90.20
59651;DHT22;45954;49.768;8.636;2023-09-12T12:28:01;33.00;90.20
59651;DHT22;45954;49.768;8.636;2023-09-12T12:30:31;32.70;90.80
59651;DHT22;45954;49.768;8.636;2023-09-12T12:33:01;32.20;90.30
59651;DHT22;45954;49.768;8.636;2023-09-12T12:35:28;31.90;90.80
59651;DHT22;45954;49.768;8.636;2023-09-12T12:37:55;31.90;90.90
59651;DHT22;45954;49.768;8.636;2023-09-12T12:40:22;32.30;90.70
59651;DHT22;45954;49.768;8.636;2023-09-12T12:42:48;32.40;91.00
59651;DHT22;45954;49.768;8.636;2023-09-12T12:45:22;32.60;90.50
59651;DHT22;45954;49.768;8.636;2023-09-12T12:47:56;33.00;90.00
59651;DHT22;45954;49.768;8.636;2023-09-12T12:50:23;32.60;89.60
59651;DHT22;45954;49.768;8.636;2023-09-12T12:52:49;32.60;88.80
59651;DHT22;45954;49.768;8.636;2023-09-12T12:55:16;32.00;89.90
59651;DHT22;45954;49.768;8.636;2023-09-12T12:57:44;32.20;89.10
59651;DHT22;45954;49.768;8.636;2023-09-12T13:00:15;32.70;88.90
59651;DHT22;45954;49.768;8.636;2023-09-12T13:02:43;33.00;89.20
59651;DHT22;45954;49.768;8.636;2023-09-12T13:05:21;33.20;88.60
59651;DHT22;45954;49.768;8.636;2023-09-12T13:07:50;33.50;87.00
59651;DHT22;45954;49.768;8.636;2023-09-12T13:10:17;33.50;86.80
59651;DHT22;45954;49.768;8.636;2023-09-12T13:12:43;33.90;87.80
59651;DHT22;45954;49.768;8.636;2023-09-12T13:15:12;34.40;86.40
59651;DHT22;45954;49.768;8.636;2023-09-12T13:17:39;34.00;86.30
59651;DHT22;45954;49.768;8.636;2023-09-12T13:20:06;34.00;85.10
59651;DHT22;45954;49.768;8.636;2023-09-12T13:22:34;33.90;86.10
59651;DHT22;45954;49.768;8.636;2023-09-12T13:25:01;34.40;85.50
59651;DHT22;45954;49.768;8.636;2023-09-12T13:27:27;33.90;85.30
59651;DHT22;45954;49.768;8.636;2023-09-12T13:29:53;34.50;85.50
59651;DHT22;45954;49.768;8.636;2023-09-12T13:32:19;34.80;85.30
59651;DHT22;45954;49.768;8.636;2023-09-12T13:34:45;34.10;84.80
59651;DHT22;45954;49.768;8.636;2023-09-12T13:37:11;34.00;83.60
59651;DHT22;45954;49.768;8.636;2023-09-12T13:39:37;33.70;85.90
59651;DHT22;45954;49.768;8.636;2023-09-12T13:42:05;34.40;83.20
59651;DHT22;45954;49.768;8.636;2023-09-12T13:44:34;33.50;84.30
59651;DHT22;45954;49.768;8.636;2023-09-12T13:47:00;33.80;83.10
59651;DHT22;45954;49.768;8.636;2023-09-12T13:49:25;34.10;83.70
59651;DHT22;45954;49.768;8.636;2023-09-12T13:51:51;34.40;81.40
59651;DHT22;45954;49.768;8.636;2023-09-12T13:54:17;34.40;82.00
59651;DHT22;45954;49.768;8.636;2023-09-12T13:56:46;34.80;80.30
59651;DHT22;45954;49.768;8.636;2023-09-12T13:59:12;35.20;80.10
59651;DHT22;45954;49.768;8.636;2023-09-12T14:01:38;35.30;78.50
59651;DHT22;45954;49.768;8.636;2023-09-12T14:04:04;35.20;78.10
59651;DHT22;45954;49.768;8.636;2023-09-12T14:06:31;35.80;77.40
59651;DHT22;45954;49.768;8.636;2023-09-12T14:08:58;36.00;77.50
59651;DHT22;45954;49.768;8.636;2023-09-12T14:11:24;36.20;76.40
59651;DHT22;45954;49.768;8.636;2023-09-12T14:13:50;36.20;76.20
59651;DHT22;45954;49.768;8.636;2023-09-12T14:16:15;36.30;76.40
59651;DHT22;45954;49.768;8.636;2023-09-12T14:18:41;37.10;75.90
59651;DHT22;45954;49.768;8.636;2023-09-12T14:21:07;37.30;75.70
59651;DHT22;45954;49.768;8.636;2023-09-12T14:23:33;38.30;74.50
59651;DHT22;45954;49.768;8.636;2023-09-12T14:25:59;39.10;72.40
59651;DHT22;45954;49.768;8.636;2023-09-12T14:28:24;38.10;72.50
59651;DHT22;45954;49.768;8.636;2023-09-12T14:30:50;37.40;72.40
59651;DHT22;45954;49.768;8.636;2023-09-12T14:33:18;37.50;72.40
59651;DHT22;45954;49.768;8.636;2023-09-12T14:35:44;36.90;73.30
59651;DHT22;45954;49.768;8.636;2023-09-12T14:38:10;36.50;73.20
59651;DHT22;45954;49.768;8.636;2023-09-12T14:40:36;35.80;73.30
59651;DHT22;45954;49.768;8.636;2023-09-12T14:43:03;35.40;74.10
59651;DHT22;45954;49.768;8.636;2023-09-12T14:45:29;35.30;75.30
59651;DHT22;45954;49.768;8.636;2023-09-12T14:47:56;34.60;74.90
59651;DHT22;45954;49.768;8.636;2023-09-12T14:50:23;34.30;76.90
59651;DHT22;45954;49.768;8.636;2023-09-12T14:52:51;33.70;75.30
59651;DHT22;45954;49.768;8.636;2023-09-12T14:55:17;33.10;79.00
59651;DHT22;45954;49.768;8.636;2023-09-12T14:57:43;32.70;80.90
59651;DHT22;45954;49.768;8.636;2023-09-12T15:00:09;32.30;81.60
59651;DHT22;45954;49.768;8.636;2023-09-12T15:02:37;32.40;81.20
59651;DHT22;45954;49.768;8.636;2023-09-12T15:05:03;33.20;81.00
59651;DHT22;45954;49.768;8.636;2023-09-12T15:07:30;34.50;78.80
59651;DHT22;45954;49.768;8.636;2023-09-12T15:09:57;35.20;79.00
59651;DHT22;45954;49.768;8.636;2023-09-12T15:12:22;36.00;77.70
59651;DHT22;45954;49.768;8.636;2023-09-12T15:14:50;36.80;76.60
59651;DHT22;45954;49.768;8.636;2023-09-12T15:17:17;36.50;75.60
59651;DHT22;45954;49.768;8.636;2023-09-12T15:19:43;37.40;75.10
59651;DHT22;45954;49.768;8.636;2023-09-12T15:22:09;38.20;74.90
59651;DHT22;45954;49.768;8.636;2023-09-12T15:24:35;38.40;74.30
59651;DHT22;45954;49.768;8.636;2023-09-12T15:27:01;38.50;73.20
59651;DHT22;45954;49.768;8.636;2023-09-12T15:29:26;37.70;74.30
59651;DHT22;45954;49.768;8.636;2023-09-12T15:31:53;38.30;73.10
59651;DHT22;45954;49.768;8.636;2023-09-12T15:34:20;38.50;72.10
59651;DHT22;45954;49.768;8.636;2023-09-12T15:36:47;38.40;72.70
59651;DHT22;45954;49.768;8.636;2023-09-12T15:39:14;38.30;72.50
59651;DHT22;45954;49.768;8.636;2023-09-12T15:41:40;38.40;72.60
59651;DHT22;45954;49.768;8.636;2023-09-12T15:44:07;38.70;72.10